YM Maturity — A8UU8 — position and weather

sailwx.info

Track history (hours):
 
Tides and Currents Weather Stations Pressure Air Temp Water Temp Dewpoint Dewpoint Depression Visibility Wind Speed Wind Dir Waves Ship Positions

YM Maturity

Last reported at 2018-Feb-20 23:01 UTC. Time now 2018-Feb-20 23:06 UTC.
Position N 25°08' E 120°57'.

Length 299 m; draft 8.6 m.

Type: Cargo ship. MMSI: 636014558.

Date/timePositionNaut miles runAvg speedWind from/ knotsBaromVisibWave heightAir tempDewpointWater temp
2018-Feb-20 23:01N 25°08' E 120°57'1119.6
2018-Feb-20 22:28N 25°01' E 120°49'9519.4
2018-Feb-20 17:34N 23°39' E 119°54'722.4
2018-Feb-20 17:15N 23°33' E 119°52'522.7
2018-Feb-20 17:00N 23°28' E 119°50'3821.8
2018-Feb-20 15:15N 22°50' E 119°57'520.6
2018-Feb-20 15:00N 22°46' E 120°00'1019.6
2018-Feb-20 14:29N 22°38' E 120°07'816.6
2018-Feb-20 14:00N 22°33' E 120°14'510.4
2018-Feb-20 13:31N 22°33' E 120°19'1 1.0
2018-Feb-20 12:57N 22°33' E 120°20'0 0.0
2018-Feb-20 12:30N 22°33' E 120°20'0 0.0
2018-Feb-20 11:42N 22°33' E 120°20'0 0.0
2018-Feb-20 11:12N 22°33' E 120°20'0 0.0
2018-Feb-20 11:00N 22°33' E 120°20'0 0.0
2018-Feb-20 10:27N 22°33' E 120°20'0 0.0
2018-Feb-20 09:54N 22°33' E 120°20'0 0.0
2018-Feb-20 09:27N 22°33' E 120°20'0 0.0
2018-Feb-20 08:57N 22°33' E 120°20'0 0.0
2018-Feb-20 08:27N 22°33' E 120°20'0 0.0
2018-Feb-20 07:51N 22°33' E 120°20'0 0.0
2018-Feb-20 07:21N 22°33' E 120°20'0 0.0
2018-Feb-20 06:57N 22°33' E 120°20'0 0.0
2018-Feb-20 06:27N 22°33' E 120°20'0 0.0
2018-Feb-20 06:00N 22°33' E 120°20'0 0.0
2018-Feb-20 05:24N 22°33' E 120°20'0 0.0
2018-Feb-20 04:57N 22°33' E 120°20'0 0.0
2018-Feb-20 04:21N 22°33' E 120°20'0 0.0
2018-Feb-20 04:00N 22°33' E 120°20'0 0.0
2018-Feb-20 03:30N 22°33' E 120°20'0 0.0
2018-Feb-20 03:00N 22°33' E 120°20'1 1.8
2018-Feb-20 02:31N 22°33' E 120°19'4 7.2
2018-Feb-20 01:59N 22°32' E 120°15'3 6.5
2018-Feb-20 01:30N 22°32' E 120°11'4 8.9
2018-Feb-20 01:01N 22°31' E 120°07'611.7
2018-Feb-20 00:31N 22°30' E 120°01'711.8
2018-Feb-19 23:55N 22°30' E 119°53'614.3
2018-Feb-19 23:30N 22°29' E 119°47'714.6
2018-Feb-19 23:00N 22°29' E 119°39'9019.1
2018-Feb-19 18:19N 22°21' E 118°02'819.2
2018-Feb-19 17:55N 22°20' E 117°54'3219.2
2018-Feb-19 16:14N 22°18' E 117°19'  
2018-Feb-14 07:08N 22°31' E 119°56'1 8.4
2018-Feb-14 06:59N 22°31' E 119°57'4 8.3
2018-Feb-14 06:30N 22°32' E 120°02'5 8.9
2018-Feb-14 06:00N 22°32' E 120°07'5 9.1
2018-Feb-14 05:30N 22°33' E 120°11'510.3
2018-Feb-14 05:00N 22°33' E 120°17'2 4.9
2018-Feb-14 04:30N 22°33' E 120°20'0 0.9
2018-Feb-14 03:58N 22°33' E 120°20'0 0.0
2018-Feb-14 03:28N 22°33' E 120°20'0 0.0
2018-Feb-14 02:58N 22°33' E 120°20'0 0.0
2018-Feb-14 02:28N 22°33' E 120°20'0 0.0
2018-Feb-14 01:58N 22°33' E 120°20'0 0.0
2018-Feb-14 01:28N 22°33' E 120°20'0 0.0
2018-Feb-14 00:58N 22°33' E 120°20'0 0.0
2018-Feb-14 00:25N 22°33' E 120°20'0 0.0
2018-Feb-13 23:58N 22°33' E 120°20'0 0.0
2018-Feb-13 23:28N 22°33' E 120°20'0 0.0
2018-Feb-13 22:58N 22°33' E 120°20'0 0.0
2018-Feb-13 22:28N 22°33' E 120°20'0 0.0
2018-Feb-13 21:58N 22°33' E 120°20'0 0.0
2018-Feb-13 21:28N 22°33' E 120°20'0 0.0
2018-Feb-13 20:58N 22°33' E 120°20'0 0.0
2018-Feb-13 20:28N 22°33' E 120°20'0 0.0
2018-Feb-13 19:58N 22°33' E 120°20'0 0.0
2018-Feb-13 19:28N 22°33' E 120°20'0 0.0
2018-Feb-13 18:55N 22°33' E 120°20'0 0.0
2018-Feb-13 18:25N 22°33' E 120°20'0 0.0
2018-Feb-13 17:52N 22°33' E 120°20'0 0.0
2018-Feb-13 17:25N 22°33' E 120°20'0 0.0
2018-Feb-13 16:58N 22°33' E 120°20'0 0.0
2018-Feb-13 16:28N 22°33' E 120°20'0 0.0
2018-Feb-13 15:52N 22°33' E 120°20'0 0.0
2018-Feb-13 15:28N 22°33' E 120°20'0 0.0
2018-Feb-13 14:58N 22°33' E 120°20'0 0.0
2018-Feb-13 14:25N 22°33' E 120°20'0 0.0
2018-Feb-13 13:58N 22°33' E 120°20'0 0.0
2018-Feb-13 13:28N 22°33' E 120°20'0 0.0
2018-Feb-13 12:55N 22°33' E 120°20'0 0.0
2018-Feb-13 12:29N 22°33' E 120°20'1 1.7
2018-Feb-13 11:59N 22°33' E 120°19'3 6.7
2018-Feb-13 11:30N 22°32' E 120°16'2 5.0
2018-Feb-13 11:00N 22°32' E 120°13'1 2.6
2018-Feb-13 10:30N 22°32' E 120°12'3 5.2
2018-Feb-13 10:00N 22°33' E 120°09'5 9.7
2018-Feb-13 09:30N 22°37' E 120°06'5 9.8
2018-Feb-13 09:00N 22°42' E 120°04'611.4
2018-Feb-13 08:30N 22°47' E 120°01'611.4
2018-Feb-13 08:00N 22°51' E 119°57'3512.2
2018-Feb-13 05:08N 23°25' E 119°50'212.9
2018-Feb-13 05:00N 23°27' E 119°51'713.2
2018-Feb-13 04:30N 23°34' E 119°53'11116.5
2018-Feb-12 21:47N 25°07' E 120°57'719.3
2018-Feb-12 21:26N 25°12' E 121°02'819.6
2018-Feb-12 21:00N 25°17' E 121°10'1019.9
2018-Feb-12 20:30N 25°20' E 121°20'917.0
2018-Feb-12 19:58N 25°23' E 121°30'611.4
2018-Feb-12 19:26N 25°21' E 121°37'511.6
2018-Feb-12 19:00N 25°19' E 121°41'611.5
2018-Feb-12 18:30N 25°14' E 121°45'5 9.9
2018-Feb-12 18:00N 25°09' E 121°45'0 0.8
2018-Feb-12 17:30N 25°09' E 121°45'0 0.1
2018-Feb-12 17:00N 25°09' E 121°45'0 0.0
2018-Feb-12 16:30N 25°09' E 121°45'0 0.0
2018-Feb-12 16:00N 25°09' E 121°45'0 0.0
2018-Feb-12 15:18N 25°09' E 121°45'0 0.0
2018-Feb-12 15:00N 25°09' E 121°45'0 0.0
2018-Feb-12 14:30N 25°09' E 121°45'0 0.0
2018-Feb-12 14:00N 25°09' E 121°45'0 0.0
2018-Feb-12 13:30N 25°09' E 121°45'0 0.0
2018-Feb-12 13:00N 25°09' E 121°45'0 0.1
2018-Feb-12 12:30N 25°09' E 121°45'0 0.1
2018-Feb-12 12:00N 25°09' E 121°45'0 0.0
2018-Feb-12 11:30N 25°09' E 121°45'0 0.0
2018-Feb-12 11:00N 25°09' E 121°45'0 0.0
2018-Feb-12 10:30N 25°09' E 121°45'0 0.0
2018-Feb-12 10:00N 25°09' E 121°45'0 0.0
2018-Feb-12 09:30N 25°09' E 121°45'0 0.0
2018-Feb-12 09:00N 25°09' E 121°45'0 0.0
2018-Feb-12 08:30N 25°09' E 121°45'0 0.0
2018-Feb-12 08:00N 25°09' E 121°45'0 0.0
2018-Feb-12 07:30N 25°09' E 121°45'0 0.0
2018-Feb-12 07:00N 25°09' E 121°45'0 0.0
2018-Feb-12 06:30N 25°09' E 121°45'0 0.0
2018-Feb-12 06:00N 25°09' E 121°45'0 0.7
2018-Feb-12 05:30N 25°09' E 121°45'4 8.5
2018-Feb-12 05:00N 25°13' E 121°45'4 7.5
2018-Feb-12 04:30N 25°17' E 121°47'4 7.0
2018-Feb-12 04:00N 25°20' E 121°49'  
Track history (hours):
 
Tides and Currents Weather Stations Pressure Air Temp Water Temp Dewpoint Dewpoint Depression Visibility Wind Speed Wind Dir Waves Ship Positions

YM Maturity

Last reported at 2018-Feb-20 23:01 UTC. Time now 2018-Feb-20 23:06 UTC.
Position N 25°08' E 120°57'.

Length 299 m; draft 8.6 m.

Type: Cargo ship. MMSI: 636014558.

Date/timePositionNaut miles runAvg speedWind from/ knotsBaromVisibWave heightAir tempDewpointWater temp
2018-Feb-20 23:01N 25°08' E 120°57'1119.6
2018-Feb-20 22:28N 25°01' E 120°49'9519.4
2018-Feb-20 17:34N 23°39' E 119°54'722.4
2018-Feb-20 17:15N 23°33' E 119°52'522.7
2018-Feb-20 17:00N 23°28' E 119°50'3821.8
2018-Feb-20 15:15N 22°50' E 119°57'520.6
2018-Feb-20 15:00N 22°46' E 120°00'1019.6
2018-Feb-20 14:29N 22°38' E 120°07'816.6
2018-Feb-20 14:00N 22°33' E 120°14'510.4
2018-Feb-20 13:31N 22°33' E 120°19'1 1.0
2018-Feb-20 12:57N 22°33' E 120°20'0 0.0
2018-Feb-20 12:30N 22°33' E 120°20'0 0.0
2018-Feb-20 11:42N 22°33' E 120°20'0 0.0
2018-Feb-20 11:12N 22°33' E 120°20'0 0.0
2018-Feb-20 11:00N 22°33' E 120°20'0 0.0
2018-Feb-20 10:27N 22°33' E 120°20'0 0.0
2018-Feb-20 09:54N 22°33' E 120°20'0 0.0
2018-Feb-20 09:27N 22°33' E 120°20'0 0.0
2018-Feb-20 08:57N 22°33' E 120°20'0 0.0
2018-Feb-20 08:27N 22°33' E 120°20'0 0.0
2018-Feb-20 07:51N 22°33' E 120°20'0 0.0
2018-Feb-20 07:21N 22°33' E 120°20'0 0.0
2018-Feb-20 06:57N 22°33' E 120°20'0 0.0
2018-Feb-20 06:27N 22°33' E 120°20'0 0.0
2018-Feb-20 06:00N 22°33' E 120°20'0 0.0
2018-Feb-20 05:24N 22°33' E 120°20'0 0.0
2018-Feb-20 04:57N 22°33' E 120°20'0 0.0
2018-Feb-20 04:21N 22°33' E 120°20'0 0.0
2018-Feb-20 04:00N 22°33' E 120°20'0 0.0
2018-Feb-20 03:30N 22°33' E 120°20'0 0.0
2018-Feb-20 03:00N 22°33' E 120°20'1 1.8
2018-Feb-20 02:31N 22°33' E 120°19'4 7.2
2018-Feb-20 01:59N 22°32' E 120°15'3 6.5
2018-Feb-20 01:30N 22°32' E 120°11'4 8.9
2018-Feb-20 01:01N 22°31' E 120°07'611.7
2018-Feb-20 00:31N 22°30' E 120°01'711.8
2018-Feb-19 23:55N 22°30' E 119°53'614.3
2018-Feb-19 23:30N 22°29' E 119°47'714.6
2018-Feb-19 23:00N 22°29' E 119°39'9019.1
2018-Feb-19 18:19N 22°21' E 118°02'819.2
2018-Feb-19 17:55N 22°20' E 117°54'3219.2
2018-Feb-19 16:14N 22°18' E 117°19'  
2018-Feb-14 07:08N 22°31' E 119°56'1 8.4
2018-Feb-14 06:59N 22°31' E 119°57'4 8.3
2018-Feb-14 06:30N 22°32' E 120°02'5 8.9
2018-Feb-14 06:00N 22°32' E 120°07'5 9.1
2018-Feb-14 05:30N 22°33' E 120°11'510.3
2018-Feb-14 05:00N 22°33' E 120°17'2 4.9
2018-Feb-14 04:30N 22°33' E 120°20'0 0.9
2018-Feb-14 03:58N 22°33' E 120°20'0 0.0
2018-Feb-14 03:28N 22°33' E 120°20'0 0.0
2018-Feb-14 02:58N 22°33' E 120°20'0 0.0
2018-Feb-14 02:28N 22°33' E 120°20'0 0.0
2018-Feb-14 01:58N 22°33' E 120°20'0 0.0
2018-Feb-14 01:28N 22°33' E 120°20'0 0.0
2018-Feb-14 00:58N 22°33' E 120°20'0 0.0
2018-Feb-14 00:25N 22°33' E 120°20'0 0.0
2018-Feb-13 23:58N 22°33' E 120°20'0 0.0
2018-Feb-13 23:28N 22°33' E 120°20'0 0.0
2018-Feb-13 22:58N 22°33' E 120°20'0 0.0
2018-Feb-13 22:28N 22°33' E 120°20'0 0.0
2018-Feb-13 21:58N 22°33' E 120°20'0 0.0
2018-Feb-13 21:28N 22°33' E 120°20'0 0.0
2018-Feb-13 20:58N 22°33' E 120°20'0 0.0
2018-Feb-13 20:28N 22°33' E 120°20'0 0.0
2018-Feb-13 19:58N 22°33' E 120°20'0 0.0
2018-Feb-13 19:28N 22°33' E 120°20'0 0.0
2018-Feb-13 18:55N 22°33' E 120°20'0 0.0
2018-Feb-13 18:25N 22°33' E 120°20'0 0.0
2018-Feb-13 17:52N 22°33' E 120°20'0 0.0
2018-Feb-13 17:25N 22°33' E 120°20'0 0.0
2018-Feb-13 16:58N 22°33' E 120°20'0 0.0
2018-Feb-13 16:28N 22°33' E 120°20'0 0.0
2018-Feb-13 15:52N 22°33' E 120°20'0 0.0
2018-Feb-13 15:28N 22°33' E 120°20'0 0.0
2018-Feb-13 14:58N 22°33' E 120°20'0 0.0
2018-Feb-13 14:25N 22°33' E 120°20'0 0.0
2018-Feb-13 13:58N 22°33' E 120°20'0 0.0
2018-Feb-13 13:28N 22°33' E 120°20'0 0.0
2018-Feb-13 12:55N 22°33' E 120°20'0 0.0
2018-Feb-13 12:29N 22°33' E 120°20'1 1.7
2018-Feb-13 11:59N 22°33' E 120°19'3 6.7
2018-Feb-13 11:30N 22°32' E 120°16'2 5.0
2018-Feb-13 11:00N 22°32' E 120°13'1 2.6
2018-Feb-13 10:30N 22°32' E 120°12'3 5.2
2018-Feb-13 10:00N 22°33' E 120°09'5 9.7
2018-Feb-13 09:30N 22°37' E 120°06'5 9.8
2018-Feb-13 09:00N 22°42' E 120°04'611.4
2018-Feb-13 08:30N 22°47' E 120°01'611.4
2018-Feb-13 08:00N 22°51' E 119°57'3512.2
2018-Feb-13 05:08N 23°25' E 119°50'212.9
2018-Feb-13 05:00N 23°27' E 119°51'713.2
2018-Feb-13 04:30N 23°34' E 119°53'11116.5
2018-Feb-12 21:47N 25°07' E 120°57'719.3
2018-Feb-12 21:26N 25°12' E 121°02'819.6
2018-Feb-12 21:00N 25°17' E 121°10'1019.9
2018-Feb-12 20:30N 25°20' E 121°20'917.0
2018-Feb-12 19:58N 25°23' E 121°30'611.4
2018-Feb-12 19:26N 25°21' E 121°37'511.6
2018-Feb-12 19:00N 25°19' E 121°41'611.5
2018-Feb-12 18:30N 25°14' E 121°45'5 9.9
2018-Feb-12 18:00N 25°09' E 121°45'0 0.8
2018-Feb-12 17:30N 25°09' E 121°45'0 0.1
2018-Feb-12 17:00N 25°09' E 121°45'0 0.0
2018-Feb-12 16:30N 25°09' E 121°45'0 0.0
2018-Feb-12 16:00N 25°09' E 121°45'0 0.0
2018-Feb-12 15:18N 25°09' E 121°45'0 0.0
2018-Feb-12 15:00N 25°09' E 121°45'0 0.0
2018-Feb-12 14:30N 25°09' E 121°45'0 0.0
2018-Feb-12 14:00N 25°09' E 121°45'0 0.0
2018-Feb-12 13:30N 25°09' E 121°45'0 0.0
2018-Feb-12 13:00N 25°09' E 121°45'0 0.1
2018-Feb-12 12:30N 25°09' E 121°45'0 0.1
2018-Feb-12 12:00N 25°09' E 121°45'0 0.0
2018-Feb-12 11:30N 25°09' E 121°45'0 0.0
2018-Feb-12 11:00N 25°09' E 121°45'0 0.0
2018-Feb-12 10:30N 25°09' E 121°45'0 0.0
2018-Feb-12 10:00N 25°09' E 121°45'0 0.0
2018-Feb-12 09:30N 25°09' E 121°45'0 0.0
2018-Feb-12 09:00N 25°09' E 121°45'0 0.0
2018-Feb-12 08:30N 25°09' E 121°45'0 0.0
2018-Feb-12 08:00N 25°09' E 121°45'0 0.0
2018-Feb-12 07:30N 25°09' E 121°45'0 0.0
2018-Feb-12 07:00N 25°09' E 121°45'0 0.0
2018-Feb-12 06:30N 25°09' E 121°45'0 0.0
2018-Feb-12 06:00N 25°09' E 121°45'0 0.7
2018-Feb-12 05:30N 25°09' E 121°45'4 8.5
2018-Feb-12 05:00N 25°13' E 121°45'4 7.5
2018-Feb-12 04:30N 25°17' E 121°47'4 7.0
2018-Feb-12 04:00N 25°20' E 121°49'  

Dump ship's entire track history